createdAt,value
2023-05-22T00:00:13.553Z,21.78
2023-05-22T00:02:43.067Z,21.75
2023-05-22T00:05:11.760Z,21.67
2023-05-22T00:07:39.319Z,21.06
2023-05-22T00:10:06.701Z,21.30
2023-05-22T00:12:33.280Z,21.57
2023-05-22T00:15:00.230Z,21.29
2023-05-22T00:17:27.122Z,21.46
2023-05-22T00:19:55.160Z,21.60
2023-05-22T00:22:21.863Z,21.41
2023-05-22T00:24:48.365Z,21.70
2023-05-22T00:27:14.831Z,21.31
2023-05-22T00:29:41.405Z,21.44
2023-05-22T00:32:07.917Z,21.61
2023-05-22T00:34:34.493Z,21.70
2023-05-22T00:37:01.068Z,21.19
2023-05-22T00:39:27.535Z,21.51
2023-05-22T00:41:53.990Z,21.31
2023-05-22T00:44:20.479Z,21.73
2023-05-22T00:46:46.982Z,21.26
2023-05-22T00:49:13.480Z,21.57
2023-05-22T00:51:40.086Z,21.44
2023-05-22T00:54:06.696Z,21.14
2023-05-22T00:56:33.677Z,21.42
2023-05-22T00:59:00.403Z,21.25
2023-05-22T01:01:33.452Z,21.11
2023-05-22T01:04:02.032Z,21.35
2023-05-22T01:06:28.800Z,21.51
2023-05-22T01:08:55.315Z,21.49
2023-05-22T01:11:26.476Z,21.45
2023-05-22T01:14:20.939Z,21.07
2023-05-22T01:16:54.551Z,21.31
2023-05-22T01:19:43.698Z,21.21
2023-05-22T01:22:30.226Z,21.22
2023-05-22T01:25:35.402Z,21.25
2023-05-22T01:28:22.214Z,21.27
2023-05-22T01:31:02.259Z,21.07
2023-05-22T01:33:32.324Z,20.73
2023-05-22T01:36:01.355Z,20.93
2023-05-22T01:38:28.039Z,20.94
2023-05-22T01:40:55.185Z,20.68
2023-05-22T01:43:21.656Z,20.94
2023-05-22T01:45:48.326Z,20.97
2023-05-22T01:48:14.849Z,21.08
2023-05-22T01:50:41.809Z,21.08
2023-05-22T01:53:16.797Z,21.00
2023-05-22T01:55:50.444Z,21.02
2023-05-22T01:58:45.571Z,20.86
2023-05-22T02:01:13.357Z,20.57
2023-05-22T02:03:40.329Z,20.56
2023-05-22T02:06:09.291Z,20.81
2023-05-22T02:08:37.614Z,20.68
2023-05-22T02:11:05.290Z,20.69
2023-05-22T02:13:31.801Z,20.72
2023-05-22T02:15:58.505Z,20.67
2023-05-22T02:18:31.500Z,20.58
2023-05-22T02:20:58.372Z,20.58
2023-05-22T02:23:25.622Z,20.55
2023-05-22T02:25:52.273Z,20.11
2023-05-22T02:28:18.733Z,20.68
2023-05-22T02:30:45.266Z,20.65
2023-05-22T02:33:11.826Z,20.26
2023-05-22T02:35:38.484Z,19.98
2023-05-22T02:38:04.949Z,20.33
2023-05-22T02:40:34.016Z,20.58
2023-05-22T02:43:00.585Z,20.75
2023-05-22T02:45:27.090Z,20.87
2023-05-22T02:47:54.048Z,20.74
2023-05-22T02:50:20.547Z,20.48
2023-05-22T02:52:47.635Z,20.77
2023-05-22T02:55:14.103Z,20.61
2023-05-22T02:57:40.737Z,20.51
2023-05-22T03:00:10.650Z,20.81
2023-05-22T03:02:38.879Z,20.22
2023-05-22T03:05:06.217Z,20.90
2023-05-22T03:07:32.722Z,20.46
2023-05-22T03:09:59.357Z,20.83
2023-05-22T03:12:25.958Z,20.86
2023-05-22T03:14:52.404Z,21.08
2023-05-22T03:17:18.920Z,21.13
2023-05-22T03:19:45.392Z,21.30
2023-05-22T03:22:11.927Z,21.07
2023-05-22T03:24:38.376Z,21.40
2023-05-22T03:27:05.425Z,21.39
2023-05-22T03:29:31.993Z,21.40
2023-05-22T03:31:58.956Z,21.38
2023-05-22T03:34:27.083Z,21.24
2023-05-22T03:36:54.096Z,20.97
2023-05-22T03:39:20.689Z,21.02
2023-05-22T03:41:47.272Z,21.18
2023-05-22T03:44:13.764Z,20.93
2023-05-22T03:46:40.311Z,20.97
2023-05-22T03:49:06.814Z,20.99
2023-05-22T03:51:33.318Z,20.73
2023-05-22T03:53:59.843Z,20.90
2023-05-22T03:56:27.057Z,20.97
2023-05-22T03:58:53.611Z,21.13
2023-05-22T04:01:20.828Z,21.08
2023-05-22T04:03:47.672Z,20.94
2023-05-22T04:06:14.654Z,20.96
2023-05-22T04:08:41.149Z,20.96
2023-05-22T04:11:08.276Z,20.74
2023-05-22T04:13:35.799Z,20.74
2023-05-22T04:16:04.198Z,20.49
2023-05-22T04:18:33.806Z,20.38
2023-05-22T04:21:00.819Z,20.39
2023-05-22T04:23:27.311Z,20.42
2023-05-22T04:25:53.826Z,20.65
2023-05-22T04:28:23.297Z,20.83
2023-05-22T04:30:50.174Z,20.77
2023-05-22T04:33:18.096Z,20.76
2023-05-22T04:35:44.713Z,20.90
2023-05-22T04:38:11.259Z,20.86
2023-05-22T04:40:38.209Z,21.10
2023-05-22T04:43:05.061Z,21.23
2023-05-22T04:45:32.837Z,21.34
2023-05-22T04:48:02.392Z,21.41
2023-05-22T04:50:32.655Z,21.33
2023-05-22T04:52:59.899Z,21.40
2023-05-22T04:55:29.546Z,21.56
2023-05-22T04:57:56.418Z,21.53
2023-05-22T05:00:26.399Z,21.48
2023-05-22T05:02:53.495Z,21.61
2023-05-22T05:05:20.289Z,21.78
2023-05-22T05:07:50.108Z,21.62
2023-05-22T05:10:17.132Z,21.88
2023-05-22T05:12:43.808Z,21.71
2023-05-22T05:15:10.831Z,21.56
2023-05-22T05:17:38.396Z,21.83
2023-05-22T05:20:07.314Z,22.06
2023-05-22T05:22:34.062Z,21.98
2023-05-22T05:25:01.189Z,22.06
2023-05-22T05:27:27.856Z,22.31
2023-05-22T05:29:54.676Z,22.48
2023-05-22T05:32:21.237Z,21.94
2023-05-22T05:34:47.836Z,22.06
2023-05-22T05:37:14.327Z,21.60
2023-05-22T05:39:40.843Z,21.99
2023-05-22T05:42:07.435Z,22.23
2023-05-22T05:44:34.009Z,22.31
2023-05-22T05:47:01.053Z,22.43
2023-05-22T05:49:27.670Z,22.64
2023-05-22T05:51:54.182Z,22.69
2023-05-22T05:54:21.277Z,22.88
2023-05-22T05:56:48.155Z,22.78
2023-05-22T05:59:14.756Z,22.51
2023-05-22T06:01:45.816Z,22.63
2023-05-22T06:04:13.285Z,22.15
2023-05-22T06:06:40.139Z,22.10
2023-05-22T06:09:06.725Z,22.43
2023-05-22T06:11:33.608Z,22.22
2023-05-22T06:14:04.792Z,22.87
2023-05-22T06:16:31.816Z,22.80
2023-05-22T06:18:59.142Z,22.94
2023-05-22T06:21:26.107Z,23.15
2023-05-22T06:23:52.773Z,23.09
2023-05-22T06:26:19.384Z,23.63
2023-05-22T06:28:45.880Z,23.56
2023-05-22T06:31:12.496Z,24.07
2023-05-22T06:33:40.735Z,24.42
2023-05-22T06:36:08.824Z,24.37
2023-05-22T06:38:35.452Z,24.32
2023-05-22T06:41:02.019Z,24.46
2023-05-22T06:43:28.519Z,24.13
2023-05-22T06:45:55.075Z,24.02
2023-05-22T06:48:22.042Z,24.76
2023-05-22T06:50:48.548Z,24.97
2023-05-22T06:53:15.016Z,25.13
2023-05-22T06:55:42.447Z,25.35
2023-05-22T06:58:09.378Z,24.46
2023-05-22T07:00:39.146Z,24.76
2023-05-22T07:03:06.884Z,25.23
2023-05-22T07:05:33.584Z,24.46
2023-05-22T07:08:00.226Z,24.74
2023-05-22T07:10:27.710Z,25.14
2023-05-22T07:12:54.655Z,25.35
2023-05-22T07:15:21.398Z,24.59
2023-05-22T07:17:49.449Z,24.95
2023-05-22T07:20:17.677Z,24.32
2023-05-22T07:22:44.232Z,23.68
2023-05-22T07:25:10.870Z,24.39
2023-05-22T07:27:37.715Z,23.74
2023-05-22T07:30:04.639Z,23.35
2023-05-22T07:32:31.281Z,23.75
2023-05-22T07:34:57.953Z,23.65
2023-05-22T07:37:24.655Z,24.86
2023-05-22T07:39:51.179Z,25.06
2023-05-22T07:42:17.738Z,25.11
2023-05-22T07:44:44.229Z,25.43
2023-05-22T07:47:10.799Z,25.29
2023-05-22T07:49:37.297Z,26.13
2023-05-22T07:52:03.976Z,25.91
2023-05-22T07:54:30.563Z,26.03
2023-05-22T07:56:57.449Z,24.93
2023-05-22T07:59:25.294Z,26.02
2023-05-22T08:01:52.006Z,26.61
2023-05-22T08:04:18.778Z,25.39
2023-05-22T08:06:45.391Z,24.62
2023-05-22T08:09:12.025Z,23.51
2023-05-22T08:11:42.031Z,24.52
2023-05-22T08:14:08.964Z,24.02
2023-05-22T08:16:35.560Z,23.93
2023-05-22T08:19:02.521Z,24.07
2023-05-22T08:21:29.287Z,24.23
2023-05-22T08:23:56.060Z,25.95
2023-05-22T08:26:23.166Z,26.17
2023-05-22T08:28:49.680Z,26.77
2023-05-22T08:31:16.302Z,27.00
2023-05-22T08:33:43.130Z,25.79
2023-05-22T08:36:09.808Z,26.54
2023-05-22T08:38:37.173Z,26.52
2023-05-22T08:41:05.171Z,27.35
2023-05-22T08:43:32.011Z,26.95
2023-05-22T08:46:09.283Z,27.81
2023-05-22T08:48:37.254Z,28.11
2023-05-22T08:51:05.777Z,27.41
2023-05-22T08:53:38.790Z,27.45
2023-05-22T08:56:06.885Z,27.59
2023-05-22T08:58:35.148Z,29.35
2023-05-22T09:01:02.118Z,29.66
2023-05-22T09:03:32.906Z,29.76
2023-05-22T09:05:59.924Z,29.63
2023-05-22T09:08:27.413Z,28.81
2023-05-22T09:10:57.579Z,28.53
2023-05-22T09:13:27.223Z,29.23
2023-05-22T09:15:58.377Z,31.04
2023-05-22T09:18:27.396Z,33.36
2023-05-22T09:20:53.906Z,33.20
2023-05-22T09:23:22.135Z,32.39
2023-05-22T09:25:48.729Z,34.40
2023-05-22T09:28:15.229Z,32.82
2023-05-22T09:30:42.653Z,33.21
2023-05-22T09:33:12.915Z,34.76
2023-05-22T09:35:39.781Z,35.70
2023-05-22T09:38:06.516Z,35.72
2023-05-22T09:40:34.933Z,35.73
2023-05-22T09:43:02.532Z,36.12
2023-05-22T09:45:29.017Z,35.22
2023-05-22T09:47:55.647Z,38.28
2023-05-22T09:50:22.316Z,35.50
2023-05-22T09:52:50.732Z,38.57
2023-05-22T09:55:19.084Z,41.42
2023-05-22T09:57:46.355Z,39.03
2023-05-22T10:00:18.330Z,42.22
2023-05-22T10:02:46.959Z,42.17
2023-05-22T10:05:23.503Z,44.04
2023-05-22T10:07:52.105Z,44.32
2023-05-22T10:10:21.980Z,44.02
2023-05-22T10:12:52.772Z,40.71
2023-05-22T10:15:19.875Z,37.26
2023-05-22T10:17:47.860Z,39.22
2023-05-22T10:20:15.987Z,39.51
2023-05-22T10:22:44.517Z,44.74
2023-05-22T10:25:11.627Z,47.61
2023-05-22T10:27:39.362Z,42.51
2023-05-22T10:30:36.348Z,39.43
2023-05-22T10:33:21.891Z,42.76
2023-05-22T10:36:10.527Z,38.21
2023-05-22T10:38:55.917Z,40.01
2023-05-22T10:41:23.134Z,43.38
2023-05-22T10:43:50.744Z,40.19
2023-05-22T10:46:17.945Z,41.32
2023-05-22T10:48:46.297Z,38.39
2023-05-22T10:51:15.541Z,41.60
2023-05-22T10:53:45.401Z,41.66
2023-05-22T10:56:13.282Z,43.09
2023-05-22T10:58:42.575Z,45.62
2023-05-22T11:01:16.901Z,47.80
2023-05-22T11:03:56.677Z,47.87
2023-05-22T11:06:37.700Z,49.79
2023-05-22T11:09:26.169Z,50.54
2023-05-22T11:12:13.348Z,46.90
2023-05-22T11:14:39.952Z,45.74
2023-05-22T11:17:06.845Z,45.64
2023-05-22T11:19:33.602Z,44.07
2023-05-22T11:22:01.353Z,43.81
2023-05-22T11:24:33.131Z,45.46
2023-05-22T11:27:05.964Z,44.43
2023-05-22T11:29:32.865Z,41.72
2023-05-22T11:31:59.821Z,43.14
2023-05-22T11:34:26.371Z,46.59
2023-05-22T11:36:53.295Z,47.52
2023-05-22T11:39:19.789Z,49.40
2023-05-22T11:41:46.286Z,49.34
2023-05-22T11:44:12.741Z,50.17
2023-05-22T11:46:39.853Z,49.82
2023-05-22T11:49:09.253Z,45.24
2023-05-22T11:51:38.845Z,45.58
2023-05-22T11:54:05.466Z,49.17
2023-05-22T11:56:31.999Z,49.97
2023-05-22T11:58:58.900Z,47.38
2023-05-22T12:01:25.463Z,48.09
2023-05-22T12:03:52.044Z,49.29
2023-05-22T12:06:18.717Z,46.78
2023-05-22T12:08:45.417Z,46.41
2023-05-22T12:11:12.601Z,46.43
2023-05-22T12:13:39.275Z,43.83
2023-05-22T12:16:18.652Z,42.52
2023-05-22T12:18:45.310Z,40.85
2023-05-22T12:21:11.843Z,37.82
2023-05-22T12:23:47.687Z,37.57
2023-05-22T12:26:14.199Z,36.90
2023-05-22T12:28:40.730Z,36.21
2023-05-22T12:31:07.284Z,36.14
2023-05-22T12:33:33.904Z,35.89
2023-05-22T12:36:00.496Z,35.77
2023-05-22T12:38:28.337Z,34.42
2023-05-22T12:40:55.630Z,32.87
2023-05-22T12:43:25.503Z,33.66
2023-05-22T12:45:52.523Z,33.77
2023-05-22T12:48:19.758Z,33.99
2023-05-22T12:50:46.804Z,34.75
2023-05-22T12:53:13.434Z,34.78
2023-05-22T12:55:40.069Z,34.74
2023-05-22T12:58:06.842Z,34.83
2023-05-22T13:00:34.820Z,34.59
2023-05-22T13:03:01.701Z,34.93
2023-05-22T13:05:29.807Z,34.46
2023-05-22T13:07:56.736Z,34.63
2023-05-22T13:10:23.237Z,34.18
2023-05-22T13:12:51.463Z,34.69
2023-05-22T13:15:18.660Z,34.62
2023-05-22T13:17:45.718Z,35.20
2023-05-22T13:20:12.972Z,35.43
2023-05-22T13:22:40.351Z,35.51
2023-05-22T13:25:07.160Z,35.32
2023-05-22T13:27:34.025Z,34.89
2023-05-22T13:30:00.695Z,35.36
2023-05-22T13:32:27.278Z,35.28
2023-05-22T13:34:53.793Z,35.02
2023-05-22T13:37:20.663Z,34.47
2023-05-22T13:39:50.125Z,34.07
2023-05-22T13:42:16.691Z,33.64
2023-05-22T13:44:46.164Z,33.42
2023-05-22T13:47:12.884Z,33.54
2023-05-22T13:49:39.558Z,34.21
2023-05-22T13:52:06.102Z,33.84
2023-05-22T13:54:32.609Z,33.91
2023-05-22T13:56:59.970Z,34.24
2023-05-22T13:59:27.168Z,33.83
2023-05-22T14:01:53.669Z,33.56
2023-05-22T14:04:20.266Z,33.03
2023-05-22T14:06:46.844Z,32.78
2023-05-22T14:09:13.375Z,32.52
2023-05-22T14:11:39.836Z,32.87
2023-05-22T14:14:07.773Z,32.86
2023-05-22T14:16:34.403Z,32.36
2023-05-22T14:19:01.457Z,31.67
2023-05-22T14:21:28.191Z,31.56
2023-05-22T14:23:54.709Z,32.58
2023-05-22T14:26:21.547Z,32.86
2023-05-22T14:28:48.319Z,32.15
2023-05-22T14:31:14.848Z,32.57
2023-05-22T14:33:41.344Z,32.75
2023-05-22T14:36:07.961Z,32.26
2023-05-22T14:38:34.671Z,33.47
2023-05-22T14:41:01.670Z,31.96
2023-05-22T14:43:28.298Z,32.72
2023-05-22T14:45:56.460Z,32.57
2023-05-22T14:48:26.209Z,30.98
2023-05-22T14:50:55.867Z,30.69
2023-05-22T14:53:22.816Z,30.44
2023-05-22T14:55:49.354Z,30.06
2023-05-22T14:58:15.859Z,30.31
2023-05-22T15:00:42.811Z,30.39
2023-05-22T15:03:09.434Z,29.84
2023-05-22T15:05:36.112Z,29.18
2023-05-22T15:08:02.687Z,26.11
2023-05-22T15:10:29.214Z,24.87
2023-05-22T15:12:55.771Z,22.84
2023-05-22T15:15:24.828Z,21.77
2023-05-22T15:17:51.423Z,21.52
2023-05-22T15:20:18.090Z,20.92
2023-05-22T15:22:44.652Z,20.63
2023-05-22T15:25:14.853Z,20.51
2023-05-22T15:27:42.371Z,20.67
2023-05-22T15:30:10.052Z,21.06
2023-05-22T15:32:37.352Z,21.52
2023-05-22T15:35:05.594Z,21.60
2023-05-22T15:37:33.664Z,21.37
2023-05-22T15:40:06.782Z,21.21
2023-05-22T15:42:33.268Z,21.15
2023-05-22T15:45:00.240Z,21.08
2023-05-22T15:47:28.858Z,21.06
2023-05-22T15:49:55.832Z,20.52
2023-05-22T15:52:24.468Z,20.63
2023-05-22T15:54:51.154Z,20.80
2023-05-22T15:57:17.689Z,21.39
2023-05-22T15:59:47.011Z,21.49
2023-05-22T16:02:14.146Z,21.32
2023-05-22T16:04:40.697Z,21.10
2023-05-22T16:07:07.604Z,21.06
2023-05-22T16:09:35.283Z,20.61
2023-05-22T16:12:02.677Z,21.45
2023-05-22T16:14:29.429Z,21.66
2023-05-22T16:16:56.497Z,21.97
2023-05-22T16:19:23.394Z,22.10
2023-05-22T16:21:49.959Z,22.38
2023-05-22T16:24:16.453Z,22.33
2023-05-22T16:26:43.454Z,22.55
2023-05-22T16:29:09.959Z,22.77
2023-05-22T16:31:36.565Z,22.83
2023-05-22T16:34:04.142Z,22.98
2023-05-22T16:36:31.108Z,22.65
2023-05-22T16:38:57.677Z,22.31
2023-05-22T16:41:24.225Z,22.33
2023-05-22T16:43:50.809Z,22.93
2023-05-22T16:46:18.311Z,23.01
2023-05-22T16:48:45.837Z,23.03
2023-05-22T16:51:12.375Z,23.04
2023-05-22T16:53:40.646Z,21.30
2023-05-22T16:56:07.384Z,20.53
2023-05-22T16:58:34.027Z,20.76
2023-05-22T17:01:08.708Z,20.90
2023-05-22T17:03:38.189Z,20.93
2023-05-22T17:06:05.173Z,20.92
2023-05-22T17:08:32.180Z,21.29
2023-05-22T17:10:58.814Z,21.22
2023-05-22T17:13:25.426Z,21.62
2023-05-22T17:15:52.017Z,21.98
2023-05-22T17:18:22.399Z,21.94
2023-05-22T17:20:50.116Z,22.17
2023-05-22T17:23:17.587Z,21.84
2023-05-22T17:25:46.613Z,21.26
2023-05-22T17:28:14.326Z,21.59
2023-05-22T17:30:42.316Z,21.36
2023-05-22T17:33:09.208Z,20.55
2023-05-22T17:35:35.823Z,20.52
2023-05-22T17:38:02.338Z,21.03
2023-05-22T17:40:40.511Z,20.95
2023-05-22T17:43:11.255Z,21.15
2023-05-22T17:45:37.995Z,21.25
2023-05-22T17:48:06.490Z,21.21
2023-05-22T17:50:32.982Z,20.82
2023-05-22T17:52:59.482Z,20.84
2023-05-22T17:55:26.038Z,20.73
2023-05-22T17:57:52.676Z,20.62
2023-05-22T18:00:19.578Z,20.91
2023-05-22T18:02:47.581Z,20.52
2023-05-22T18:05:15.532Z,20.41
2023-05-22T18:07:42.109Z,20.39
2023-05-22T18:10:09.015Z,20.43
2023-05-22T18:12:37.984Z,20.83
2023-05-22T18:15:05.344Z,21.00
2023-05-22T18:17:32.450Z,21.15
2023-05-22T18:19:59.209Z,21.58
2023-05-22T18:22:25.660Z,21.80
2023-05-22T18:24:52.201Z,21.99
2023-05-22T18:27:18.700Z,22.11
2023-05-22T18:29:45.169Z,22.13
2023-05-22T18:32:13.559Z,21.95
2023-05-22T18:34:41.020Z,21.88
2023-05-22T18:37:07.558Z,21.48
2023-05-22T18:39:34.031Z,20.98
2023-05-22T18:42:00.624Z,21.00
2023-05-22T18:44:27.114Z,20.64
2023-05-22T18:46:54.198Z,20.52
2023-05-22T18:49:20.912Z,20.90
2023-05-22T18:51:47.480Z,21.16
2023-05-22T18:54:13.973Z,21.09
2023-05-22T18:56:40.618Z,20.69
2023-05-22T18:59:09.918Z,21.03
2023-05-22T19:01:36.538Z,20.89
2023-05-22T19:04:03.172Z,21.02
2023-05-22T19:06:30.498Z,21.06
2023-05-22T19:08:57.121Z,20.68
2023-05-22T19:11:23.687Z,20.38
2023-05-22T19:13:53.672Z,20.58
2023-05-22T19:16:20.430Z,20.34
2023-05-22T19:18:47.031Z,20.47
2023-05-22T19:21:13.606Z,20.63
2023-05-22T19:23:40.270Z,20.76
2023-05-22T19:26:06.819Z,21.05
2023-05-22T19:28:33.389Z,20.78
2023-05-22T19:31:03.073Z,20.94
2023-05-22T19:33:31.187Z,20.80
2023-05-22T19:35:58.802Z,20.71
2023-05-22T19:38:25.576Z,20.90
2023-05-22T19:40:52.101Z,20.83
2023-05-22T19:43:18.749Z,21.06
2023-05-22T19:45:45.649Z,21.19
2023-05-22T19:48:13.140Z,21.29
2023-05-22T19:50:41.196Z,20.88
2023-05-22T19:53:07.934Z,21.25
2023-05-22T19:55:34.406Z,21.14
2023-05-22T19:58:00.870Z,21.57
2023-05-22T20:00:31.387Z,21.50
2023-05-22T20:02:58.082Z,21.69
2023-05-22T20:05:25.878Z,21.51
2023-05-22T20:07:52.392Z,21.92
2023-05-22T20:10:18.969Z,21.64
2023-05-22T20:12:45.895Z,21.71
2023-05-22T20:15:14.831Z,21.79
2023-05-22T20:17:42.496Z,21.72
2023-05-22T20:20:13.498Z,21.43
2023-05-22T20:22:40.049Z,21.33
2023-05-22T20:25:07.147Z,21.53
2023-05-22T20:27:33.704Z,21.92
2023-05-22T20:30:00.496Z,22.13
2023-05-22T20:32:27.366Z,21.65
2023-05-22T20:34:55.316Z,21.95
2023-05-22T20:37:22.318Z,21.82
2023-05-22T20:39:50.206Z,22.04
2023-05-22T20:42:17.481Z,21.75
2023-05-22T20:44:44.125Z,21.60
2023-05-22T20:47:13.367Z,21.70
2023-05-22T20:49:40.418Z,21.68
2023-05-22T20:52:06.941Z,21.30
2023-05-22T20:54:34.626Z,21.24
2023-05-22T20:57:01.722Z,21.08
2023-05-22T20:59:29.023Z,21.44
2023-05-22T21:01:56.888Z,21.00
2023-05-22T21:04:23.928Z,20.79
2023-05-22T21:06:50.998Z,20.81
2023-05-22T21:09:17.557Z,21.22
2023-05-22T21:11:44.071Z,20.88
2023-05-22T21:14:10.648Z,21.15
2023-05-22T21:16:39.496Z,21.24
2023-05-22T21:19:07.477Z,21.25
2023-05-22T21:21:35.663Z,20.98
2023-05-22T21:24:02.234Z,21.11
2023-05-22T21:26:28.727Z,21.21
2023-05-22T21:28:55.332Z,21.42
2023-05-22T21:31:22.015Z,21.13
2023-05-22T21:33:54.333Z,21.24
2023-05-22T21:36:20.798Z,21.01
2023-05-22T21:38:51.584Z,21.36
2023-05-22T21:41:18.063Z,20.74
2023-05-22T21:43:47.230Z,21.06
2023-05-22T21:46:13.773Z,20.65
2023-05-22T21:48:40.482Z,20.65
2023-05-22T21:51:07.062Z,20.76
2023-05-22T21:53:33.591Z,20.50
2023-05-22T21:56:00.162Z,20.81
2023-05-22T21:58:26.731Z,20.28
2023-05-22T22:00:53.204Z,19.62
2023-05-22T22:03:19.723Z,19.82
2023-05-22T22:05:46.695Z,19.59
2023-05-22T22:08:14.334Z,20.06
2023-05-22T22:10:41.014Z,19.56
2023-05-22T22:13:07.825Z,19.72
2023-05-22T22:15:34.445Z,19.55
2023-05-22T22:18:02.385Z,19.78
2023-05-22T22:20:43.531Z,19.44
2023-05-22T22:23:12.547Z,19.64
2023-05-22T22:25:39.459Z,19.72
2023-05-22T22:28:07.206Z,19.73
2023-05-22T22:30:33.905Z,19.32
2023-05-22T22:33:00.636Z,19.38
2023-05-22T22:35:27.250Z,19.17
2023-05-22T22:37:53.795Z,19.20
2023-05-22T22:40:20.447Z,19.25
2023-05-22T22:42:46.978Z,19.21
2023-05-22T22:45:14.672Z,19.50
2023-05-22T22:47:41.322Z,19.53
2023-05-22T22:50:09.918Z,19.45
2023-05-22T22:52:37.831Z,19.70
2023-05-22T22:55:11.038Z,19.66
2023-05-22T22:57:37.637Z,19.73
2023-05-22T23:00:05.578Z,19.23
2023-05-22T23:02:32.067Z,19.20
2023-05-22T23:04:58.644Z,19.42
2023-05-22T23:07:25.533Z,19.40
2023-05-22T23:09:52.020Z,18.87
2023-05-22T23:12:20.435Z,19.37
2023-05-22T23:14:47.729Z,19.11
2023-05-22T23:17:14.274Z,19.36
2023-05-22T23:19:40.797Z,19.23
2023-05-22T23:22:07.443Z,19.17
2023-05-22T23:24:34.274Z,19.11
2023-05-22T23:27:01.368Z,18.79
2023-05-22T23:29:28.060Z,18.56
2023-05-22T23:31:55.430Z,18.48
2023-05-22T23:34:22.016Z,19.18
2023-05-22T23:36:51.761Z,19.06
2023-05-22T23:39:18.256Z,19.00
2023-05-22T23:41:45.389Z,18.55
2023-05-22T23:44:12.173Z,18.16
2023-05-22T23:46:39.741Z,18.22
2023-05-22T23:49:07.176Z,18.41
2023-05-22T23:51:33.680Z,18.84
2023-05-22T23:54:00.368Z,18.90
2023-05-22T23:56:26.864Z,18.60
2023-05-22T23:58:53.406Z,18.94
